sensor_id;sensor_type;location;lat;lon;timestamp;pressure;altitude;pressure_sealevel;temperature;humidity
65800;BME280;52544;48.116;11.660;2023-07-09T00:00:51;96037.63;;;20.91;100.00
65800;BME280;52544;48.116;11.660;2023-07-09T00:03:18;96044.19;;;20.88;100.00
65800;BME280;52544;48.116;11.660;2023-07-09T00:05:47;96030.94;;;20.87;100.00
65800;BME280;52544;48.116;11.660;2023-07-09T00:08:29;96024.06;;;20.84;100.00
65800;BME280;52544;48.116;11.660;2023-07-09T00:10:56;96025.09;;;20.83;100.00
65800;BME280;52544;48.116;11.660;2023-07-09T00:13:24;96026.28;;;20.81;100.00
65800;BME280;52544;48.116;11.660;2023-07-09T00:15:50;96028.97;;;20.81;100.00
65800;BME280;52544;48.116;11.660;2023-07-09T00:18:16;96025.63;;;20.79;100.00
65800;BME280;52544;48.116;11.660;2023-07-09T00:20:42;96032.22;;;20.76;100.00
65800;BME280;52544;48.116;11.660;2023-07-09T00:23:09;96034.41;;;20.72;100.00
65800;BME280;52544;48.116;11.660;2023-07-09T00:25:39;96036.47;;;20.70;100.00
65800;BME280;52544;48.116;11.660;2023-07-09T00:28:12;96043.88;;;20.68;100.00
65800;BME280;52544;48.116;11.660;2023-07-09T00:30:38;96040.53;;;20.66;100.00
65800;BME280;52544;48.116;11.660;2023-07-09T00:33:03;96036.75;;;20.61;100.00
65800;BME280;52544;48.116;11.660;2023-07-09T00:35:29;96037.28;;;20.56;100.00
65800;BME280;52544;48.116;11.660;2023-07-09T00:37:56;96038.66;;;20.52;100.00
65800;BME280;52544;48.116;11.660;2023-07-09T00:40:26;96043.69;;;20.47;100.00
65800;BME280;52544;48.116;11.660;2023-07-09T00:42:54;96048.78;;;20.42;100.00
65800;BME280;52544;48.116;11.660;2023-07-09T00:45:25;96054.34;;;20.40;100.00
65800;BME280;52544;48.116;11.660;2023-07-09T00:48:02;96048.31;;;20.38;100.00
65800;BME280;52544;48.116;11.660;2023-07-09T00:50:35;96055.06;;;20.34;100.00
65800;BME280;52544;48.116;11.660;2023-07-09T00:53:08;96054.75;;;20.29;100.00
65800;BME280;52544;48.116;11.660;2023-07-09T00:55:39;96056.34;;;20.23;100.00
65800;BME280;52544;48.116;11.660;2023-07-09T00:58:09;96060.38;;;20.19;100.00
65800;BME280;52544;48.116;11.660;2023-07-09T01:00:41;96067.13;;;20.15;100.00
65800;BME280;52544;48.116;11.660;2023-07-09T01:03:18;96063.13;;;20.11;100.00
65800;BME280;52544;48.116;11.660;2023-07-09T01:05:46;96059.81;;;20.09;100.00
65800;BME280;52544;48.116;11.660;2023-07-09T01:08:17;96058.28;;;20.07;100.00
65800;BME280;52544;48.116;11.660;2023-07-09T01:10:43;96059.84;;;20.01;100.00
65800;BME280;52544;48.116;11.660;2023-07-09T01:13:08;96067.53;;;20.04;100.00
65800;BME280;52544;48.116;11.660;2023-07-09T01:15:35;96072.06;;;20.04;100.00
65800;BME280;52544;48.116;11.660;2023-07-09T01:18:03;96065.56;;;19.98;100.00
65800;BME280;52544;48.116;11.660;2023-07-09T01:20:30;96068.59;;;19.95;100.00
65800;BME280;52544;48.116;11.660;2023-07-09T01:22:56;96072.66;;;19.91;100.00
65800;BME280;52544;48.116;11.660;2023-07-09T01:25:23;96068.31;;;19.90;100.00
65800;BME280;52544;48.116;11.660;2023-07-09T01:27:50;96079.25;;;19.88;100.00
65800;BME280;52544;48.116;11.660;2023-07-09T01:32:50;96070.03;;;19.83;100.00
65800;BME280;52544;48.116;11.660;2023-07-09T01:35:19;96073.72;;;19.82;100.00
65800;BME280;52544;48.116;11.660;2023-07-09T01:37:46;96072.41;;;19.78;100.00
65800;BME280;52544;48.116;11.660;2023-07-09T01:40:14;96069.06;;;19.76;100.00
65800;BME280;52544;48.116;11.660;2023-07-09T01:42:39;96082.66;;;19.74;100.00
65800;BME280;52544;48.116;11.660;2023-07-09T01:45:07;96075.13;;;19.69;100.00
65800;BME280;52544;48.116;11.660;2023-07-09T01:47:33;96075.47;;;19.66;100.00
65800;BME280;52544;48.116;11.660;2023-07-09T01:49:58;96081.53;;;19.60;100.00
65800;BME280;52544;48.116;11.660;2023-07-09T01:52:27;96080.69;;;19.60;100.00
65800;BME280;52544;48.116;11.660;2023-07-09T01:54:53;96078.53;;;19.55;100.00
65800;BME280;52544;48.116;11.660;2023-07-09T01:57:24;96075.16;;;19.53;100.00
65800;BME280;52544;48.116;11.660;2023-07-09T01:59:54;96078.22;;;19.50;100.00
65800;BME280;52544;48.116;11.660;2023-07-09T02:02:23;96072.00;;;19.49;100.00
65800;BME280;52544;48.116;11.660;2023-07-09T02:04:54;96079.59;;;19.46;100.00
65800;BME280;52544;48.116;11.660;2023-07-09T02:07:21;96084.28;;;19.44;100.00
65800;BME280;52544;48.116;11.660;2023-07-09T02:09:47;96084.47;;;19.42;100.00
65800;BME280;52544;48.116;11.660;2023-07-09T02:12:14;96093.53;;;19.41;100.00
65800;BME280;52544;48.116;11.660;2023-07-09T02:14:41;96083.97;;;19.39;100.00
65800;BME280;52544;48.116;11.660;2023-07-09T02:17:07;96084.47;;;19.34;100.00
65800;BME280;52544;48.116;11.660;2023-07-09T02:19:32;96085.66;;;19.32;100.00
65800;BME280;52544;48.116;11.660;2023-07-09T02:21:58;96084.31;;;19.28;100.00
65800;BME280;52544;48.116;11.660;2023-07-09T02:24:23;96088.22;;;19.25;100.00
65800;BME280;52544;48.116;11.660;2023-07-09T02:26:55;96081.50;;;19.21;100.00
65800;BME280;52544;48.116;11.660;2023-07-09T02:29:22;96075.47;;;19.19;100.00
65800;BME280;52544;48.116;11.660;2023-07-09T02:31:49;96082.19;;;19.15;100.00
65800;BME280;52544;48.116;11.660;2023-07-09T02:34:16;96085.69;;;19.15;100.00
65800;BME280;52544;48.116;11.660;2023-07-09T02:36:42;96082.38;;;19.13;100.00
65800;BME280;52544;48.116;11.660;2023-07-09T02:39:09;96083.91;;;19.08;100.00
65800;BME280;52544;48.116;11.660;2023-07-09T02:41:36;96092.09;;;19.06;100.00
65800;BME280;52544;48.116;11.660;2023-07-09T02:44:01;96083.56;;;19.03;100.00
65800;BME280;52544;48.116;11.660;2023-07-09T02:46:26;96088.09;;;19.02;100.00
65800;BME280;52544;48.116;11.660;2023-07-09T02:48:52;96086.09;;;19.04;100.00
65800;BME280;52544;48.116;11.660;2023-07-09T02:51:17;96091.44;;;19.04;100.00
65800;BME280;52544;48.116;11.660;2023-07-09T02:53:43;96093.44;;;19.02;100.00
65800;BME280;52544;48.116;11.660;2023-07-09T02:56:08;96095.63;;;19.07;100.00
65800;BME280;52544;48.116;11.660;2023-07-09T02:58:33;96090.44;;;19.05;100.00
65800;BME280;52544;48.116;11.660;2023-07-09T03:00:59;96095.47;;;19.08;100.00
65800;BME280;52544;48.116;11.660;2023-07-09T03:03:24;96087.56;;;19.07;100.00
65800;BME280;52544;48.116;11.660;2023-07-09T03:05:50;96097.47;;;19.06;100.00
65800;BME280;52544;48.116;11.660;2023-07-09T03:08:15;96090.25;;;19.07;100.00
65800;BME280;52544;48.116;11.660;2023-07-09T03:10:41;96095.28;;;19.10;100.00
65800;BME280;52544;48.116;11.660;2023-07-09T03:13:06;96099.81;;;19.09;100.00
65800;BME280;52544;48.116;11.660;2023-07-09T03:15:32;96097.97;;;19.10;100.00
65800;BME280;52544;48.116;11.660;2023-07-09T03:17:57;96101.66;;;19.09;100.00
65800;BME280;52544;48.116;11.660;2023-07-09T03:20:23;96097.78;;;19.11;100.00
65800;BME280;52544;48.116;11.660;2023-07-09T03:22:48;96104.50;;;19.07;100.00
65800;BME280;52544;48.116;11.660;2023-07-09T03:25:14;96100.66;;;19.10;100.00
65800;BME280;52544;48.116;11.660;2023-07-09T03:27:40;96097.31;;;19.08;100.00
65800;BME280;52544;48.116;11.660;2023-07-09T03:30:05;96101.81;;;19.07;100.00
65800;BME280;52544;48.116;11.660;2023-07-09T03:32:31;96103.50;;;19.08;100.00
65800;BME280;52544;48.116;11.660;2023-07-09T03:34:56;96104.34;;;19.09;100.00
65800;BME280;52544;48.116;11.660;2023-07-09T03:37:22;96113.88;;;19.11;100.00
65800;BME280;52544;48.116;11.660;2023-07-09T03:39:47;96120.94;;;19.12;100.00
65800;BME280;52544;48.116;11.660;2023-07-09T03:42:14;96117.56;;;19.10;100.00
65800;BME280;52544;48.116;11.660;2023-07-09T03:44:39;96119.91;;;19.13;100.00
65800;BME280;52544;48.116;11.660;2023-07-09T03:47:05;96113.53;;;19.14;100.00
65800;BME280;52544;48.116;11.660;2023-07-09T03:49:31;96117.75;;;19.17;100.00
65800;BME280;52544;48.116;11.660;2023-07-09T03:51:56;96106.81;;;19.18;100.00
65800;BME280;52544;48.116;11.660;2023-07-09T03:54:22;96111.66;;;19.23;100.00
65800;BME280;52544;48.116;11.660;2023-07-09T03:56:47;96113.72;;;19.21;100.00
65800;BME280;52544;48.116;11.660;2023-07-09T03:59:12;96118.88;;;19.22;100.00
65800;BME280;52544;48.116;11.660;2023-07-09T04:01:38;96119.56;;;19.25;100.00
65800;BME280;52544;48.116;11.660;2023-07-09T04:04:03;96121.03;;;19.35;100.00
65800;BME280;52544;48.116;11.660;2023-07-09T04:06:29;96116.66;;;19.42;100.00
65800;BME280;52544;48.116;11.660;2023-07-09T04:08:54;96120.81;;;19.45;100.00
65800;BME280;52544;48.116;11.660;2023-07-09T04:11:20;96123.84;;;19.50;100.00
65800;BME280;52544;48.116;11.660;2023-07-09T04:13:45;96125.19;;;19.54;100.00
65800;BME280;52544;48.116;11.660;2023-07-09T04:16:11;96126.16;;;19.53;100.00
65800;BME280;52544;48.116;11.660;2023-07-09T04:18:36;96125.19;;;19.54;100.00
65800;BME280;52544;48.116;11.660;2023-07-09T04:21:02;96117.78;;;19.56;100.00
65800;BME280;52544;48.116;11.660;2023-07-09T04:23:27;96122.63;;;19.69;100.00
65800;BME280;52544;48.116;11.660;2023-07-09T04:25:53;96131.34;;;19.71;100.00
65800;BME280;52544;48.116;11.660;2023-07-09T04:28:18;96132.66;;;19.75;100.00
65800;BME280;52544;48.116;11.660;2023-07-09T04:30:51;96131.81;;;19.75;100.00
65800;BME280;52544;48.116;11.660;2023-07-09T04:33:18;96127.47;;;19.73;100.00
65800;BME280;52544;48.116;11.660;2023-07-09T04:35:45;96136.72;;;19.71;100.00
65800;BME280;52544;48.116;11.660;2023-07-09T04:38:11;96137.91;;;19.68;100.00
65800;BME280;52544;48.116;11.660;2023-07-09T04:40:37;96136.06;;;19.69;100.00
65800;BME280;52544;48.116;11.660;2023-07-09T04:43:02;96138.75;;;19.69;100.00
65800;BME280;52544;48.116;11.660;2023-07-09T04:45:27;96137.56;;;19.71;100.00
65800;BME280;52544;48.116;11.660;2023-07-09T04:47:53;96145.94;;;19.77;100.00
65800;BME280;52544;48.116;11.660;2023-07-09T04:50:18;96139.69;;;19.84;100.00
65800;BME280;52544;48.116;11.660;2023-07-09T04:52:44;96144.53;;;19.89;100.00
65800;BME280;52544;48.116;11.660;2023-07-09T04:55:09;96139.28;;;19.95;100.00
65800;BME280;52544;48.116;11.660;2023-07-09T04:57:36;96146.81;;;20.00;100.00
65800;BME280;52544;48.116;11.660;2023-07-09T05:00:03;96141.94;;;20.04;100.00
65800;BME280;52544;48.116;11.660;2023-07-09T05:02:30;96144.06;;;20.08;100.00
65800;BME280;52544;48.116;11.660;2023-07-09T05:04:55;96137.19;;;20.14;100.00
65800;BME280;52544;48.116;11.660;2023-07-09T05:07:21;96135.97;;;20.16;100.00
65800;BME280;52544;48.116;11.660;2023-07-09T05:09:46;96142.66;;;20.20;100.00
65800;BME280;52544;48.116;11.660;2023-07-09T05:12:13;96146.88;;;20.23;100.00
65800;BME280;52544;48.116;11.660;2023-07-09T05:14:38;96146.34;;;20.28;100.00
65800;BME280;52544;48.116;11.660;2023-07-09T05:17:04;96146.09;;;20.37;100.00
65800;BME280;52544;48.116;11.660;2023-07-09T05:19:29;96148.09;;;20.43;100.00
65800;BME280;52544;48.116;11.660;2023-07-09T05:21:55;96152.56;;;20.51;100.00
65800;BME280;52544;48.116;11.660;2023-07-09T05:24:20;96149.53;;;20.54;100.00
65800;BME280;52544;48.116;11.660;2023-07-09T05:26:46;96154.22;;;20.60;100.00
65800;BME280;52544;48.116;11.660;2023-07-09T05:29:11;96149.78;;;20.67;100.00
65800;BME280;52544;48.116;11.660;2023-07-09T05:31:37;96156.47;;;20.71;100.00
65800;BME280;52544;48.116;11.660;2023-07-09T05:34:02;96149.00;;;20.82;100.00
65800;BME280;52544;48.116;11.660;2023-07-09T05:36:29;96157.00;;;20.90;100.00
65800;BME280;52544;48.116;11.660;2023-07-09T05:38:55;96148.47;;;21.01;100.00
65800;BME280;52544;48.116;11.660;2023-07-09T05:41:21;96143.03;;;21.09;100.00
65800;BME280;52544;48.116;11.660;2023-07-09T05:43:50;96154.00;;;21.22;100.00
65800;BME280;52544;48.116;11.660;2023-07-09T05:46:15;96156.59;;;21.31;100.00
65800;BME280;52544;48.116;11.660;2023-07-09T05:48:41;96153.88;;;21.39;100.00
65800;BME280;52544;48.116;11.660;2023-07-09T05:51:06;96160.00;;;21.48;100.00
65800;BME280;52544;48.116;11.660;2023-07-09T05:53:32;96168.47;;;21.59;100.00
65800;BME280;52544;48.116;11.660;2023-07-09T05:55:58;96165.13;;;21.72;100.00
65800;BME280;52544;48.116;11.660;2023-07-09T05:58:24;96165.28;;;21.85;100.00
65800;BME280;52544;48.116;11.660;2023-07-09T06:00:50;96159.59;;;21.95;100.00
65800;BME280;52544;48.116;11.660;2023-07-09T06:03:25;96170.56;;;22.08;100.00
65800;BME280;52544;48.116;11.660;2023-07-09T06:05:51;96170.47;;;22.16;100.00
65800;BME280;52544;48.116;11.660;2023-07-09T06:08:18;96165.63;;;22.27;100.00
65800;BME280;52544;48.116;11.660;2023-07-09T06:11:10;96169.53;;;22.39;100.00
65800;BME280;52544;48.116;11.660;2023-07-09T06:13:35;96169.00;;;22.50;100.00
65800;BME280;52544;48.116;11.660;2023-07-09T06:16:01;96169.13;;;22.63;100.00
65800;BME280;52544;48.116;11.660;2023-07-09T06:18:27;96178.97;;;22.71;100.00
65800;BME280;52544;48.116;11.660;2023-07-09T06:20:58;96179.28;;;22.83;100.00
65800;BME280;52544;48.116;11.660;2023-07-09T06:23:24;96179.66;;;22.94;100.00
65800;BME280;52544;48.116;11.660;2023-07-09T06:25:49;96183.22;;;23.02;100.00
65800;BME280;52544;48.116;11.660;2023-07-09T06:28:21;96177.09;;;23.14;100.00
65800;BME280;52544;48.116;11.660;2023-07-09T06:30:48;96174.72;;;23.26;100.00
65800;BME280;52544;48.116;11.660;2023-07-09T06:33:15;96181.03;;;23.40;100.00
65800;BME280;52544;48.116;11.660;2023-07-09T06:35:52;96176.00;;;23.58;100.00
65800;BME280;52544;48.116;11.660;2023-07-09T06:38:18;96172.16;;;23.74;100.00
65800;BME280;52544;48.116;11.660;2023-07-09T06:40:44;96176.03;;;23.93;100.00
65800;BME280;52544;48.116;11.660;2023-07-09T06:43:10;96177.16;;;24.12;100.00
65800;BME280;52544;48.116;11.660;2023-07-09T06:45:35;96178.72;;;24.34;100.00
65800;BME280;52544;48.116;11.660;2023-07-09T06:48:01;96170.84;;;24.46;100.00
65800;BME280;52544;48.116;11.660;2023-07-09T06:50:26;96168.41;;;24.51;100.00
65800;BME280;52544;48.116;11.660;2023-07-09T06:52:51;96171.94;;;24.52;92.30
65800;BME280;52544;48.116;11.660;2023-07-09T06:55:17;96174.03;;;24.56;90.76
65800;BME280;52544;48.116;11.660;2023-07-09T06:57:43;96170.88;;;24.59;99.69
65800;BME280;52544;48.116;11.660;2023-07-09T07:00:08;96177.78;;;24.62;88.38
65800;BME280;52544;48.116;11.660;2023-07-09T07:02:34;96165.94;;;24.69;99.95
65800;BME280;52544;48.116;11.660;2023-07-09T07:05:00;96168.25;;;24.73;97.17
65800;BME280;52544;48.116;11.660;2023-07-09T07:07:26;96169.06;;;24.80;89.90
65800;BME280;52544;48.116;11.660;2023-07-09T07:09:51;96175.13;;;24.88;90.43
65800;BME280;52544;48.116;11.660;2023-07-09T07:12:25;96172.84;;;24.92;92.33
65800;BME280;52544;48.116;11.660;2023-07-09T07:14:51;96174.28;;;25.01;89.15
65800;BME280;52544;48.116;11.660;2023-07-09T07:17:16;96170.59;;;25.09;88.45
65800;BME280;52544;48.116;11.660;2023-07-09T07:19:42;96163.09;;;25.17;85.07
65800;BME280;52544;48.116;11.660;2023-07-09T07:22:07;96172.47;;;25.22;85.32
65800;BME280;52544;48.116;11.660;2023-07-09T07:24:32;96175.19;;;25.22;87.76
65800;BME280;52544;48.116;11.660;2023-07-09T07:26:58;96168.31;;;25.19;100.00
65800;BME280;52544;48.116;11.660;2023-07-09T07:29:24;96176.44;;;25.26;100.00
65800;BME280;52544;48.116;11.660;2023-07-09T07:31:49;96163.31;;;25.29;97.41
65800;BME280;52544;48.116;11.660;2023-07-09T07:34:14;96164.34;;;25.35;85.67
65800;BME280;52544;48.116;11.660;2023-07-09T07:36:40;96167.66;;;25.43;89.38
65800;BME280;52544;48.116;11.660;2023-07-09T07:39:05;96160.59;;;25.49;86.08
65800;BME280;52544;48.116;11.660;2023-07-09T07:41:31;96161.19;;;25.58;88.60
65800;BME280;52544;48.116;11.660;2023-07-09T07:43:56;96158.03;;;25.67;81.75
65800;BME280;52544;48.116;11.660;2023-07-09T07:46:21;96160.53;;;25.76;88.10
65800;BME280;52544;48.116;11.660;2023-07-09T07:48:47;96157.00;;;25.82;85.80
65800;BME280;52544;48.116;11.660;2023-07-09T07:51:12;96150.50;;;25.96;76.68
65800;BME280;52544;48.116;11.660;2023-07-09T07:53:38;96152.97;;;26.04;76.11
65800;BME280;52544;48.116;11.660;2023-07-09T07:56:03;96142.31;;;26.09;84.01
65800;BME280;52544;48.116;11.660;2023-07-09T07:58:30;96148.53;;;26.16;91.28
65800;BME280;52544;48.116;11.660;2023-07-09T08:00:56;96146.22;;;26.20;81.58
65800;BME280;52544;48.116;11.660;2023-07-09T08:03:23;96151.63;;;26.27;82.56
65800;BME280;52544;48.116;11.660;2023-07-09T08:05:49;96144.50;;;26.32;71.86
65800;BME280;52544;48.116;11.660;2023-07-09T08:08:15;96143.00;;;26.43;68.38
65800;BME280;52544;48.116;11.660;2023-07-09T08:10:40;96146.09;;;26.53;70.24
65800;BME280;52544;48.116;11.660;2023-07-09T08:13:06;96141.91;;;26.57;74.14
65800;BME280;52544;48.116;11.660;2023-07-09T08:15:31;96147.06;;;26.65;68.15
65800;BME280;52544;48.116;11.660;2023-07-09T08:17:57;96145.16;;;26.73;67.86
65800;BME280;52544;48.116;11.660;2023-07-09T08:20:23;96147.25;;;26.71;74.16
65800;BME280;52544;48.116;11.660;2023-07-09T08:22:48;96152.00;;;26.82;67.06
65800;BME280;52544;48.116;11.660;2023-07-09T08:25:13;96149.59;;;26.92;62.96
65800;BME280;52544;48.116;11.660;2023-07-09T08:27:39;96152.84;;;27.07;59.83
65800;BME280;52544;48.116;11.660;2023-07-09T08:30:06;96149.06;;;27.08;56.33
65800;BME280;52544;48.116;11.660;2023-07-09T08:32:31;96149.50;;;27.05;57.71
65800;BME280;52544;48.116;11.660;2023-07-09T08:34:57;96145.53;;;27.08;58.00
65800;BME280;52544;48.116;11.660;2023-07-09T08:37:22;96146.34;;;27.08;57.68
65800;BME280;52544;48.116;11.660;2023-07-09T08:39:48;96150.06;;;27.21;57.25
65800;BME280;52544;48.116;11.660;2023-07-09T08:42:16;96137.31;;;27.21;55.02
65800;BME280;52544;48.116;11.660;2023-07-09T08:48:04;96143.72;;;27.27;58.26
65800;BME280;52544;48.116;11.660;2023-07-09T08:50:41;96134.25;;;27.36;56.86
65800;BME280;52544;48.116;11.660;2023-07-09T08:53:15;96134.81;;;27.45;58.91
65800;BME280;52544;48.116;11.660;2023-07-09T08:55:42;96132.63;;;27.53;53.50
65800;BME280;52544;48.116;11.660;2023-07-09T08:58:23;96133.16;;;27.62;54.16
65800;BME280;52544;48.116;11.660;2023-07-09T09:00:58;96139.16;;;27.71;51.46
65800;BME280;52544;48.116;11.660;2023-07-09T09:05:55;96133.47;;;27.72;55.74
65800;BME280;52544;48.116;11.660;2023-07-09T09:11:41;96127.09;;;27.85;56.97
65800;BME280;52544;48.116;11.660;2023-07-09T09:14:23;96119.75;;;27.85;53.17
65800;BME280;52544;48.116;11.660;2023-07-09T09:16:52;96130.56;;;27.92;52.67
65800;BME280;52544;48.116;11.660;2023-07-09T09:19:32;96129.81;;;28.03;51.27
65800;BME280;52544;48.116;11.660;2023-07-09T09:22:09;96139.16;;;28.07;49.58
65800;BME280;52544;48.116;11.660;2023-07-09T09:25:03;96134.59;;;28.08;53.00
65800;BME280;52544;48.116;11.660;2023-07-09T09:27:30;96137.34;;;28.20;50.75
65800;BME280;52544;48.116;11.660;2023-07-09T09:29:56;96130.78;;;28.27;53.74
65800;BME280;52544;48.116;11.660;2023-07-09T09:32:25;96137.38;;;28.38;47.18
65800;BME280;52544;48.116;11.660;2023-07-09T09:34:51;96139.34;;;28.61;46.50
65800;BME280;52544;48.116;11.660;2023-07-09T09:37:27;96135.88;;;28.54;69.44
65800;BME280;52544;48.116;11.660;2023-07-09T09:39:52;96130.81;;;28.57;51.55
65800;BME280;52544;48.116;11.660;2023-07-09T09:42:18;96133.22;;;28.65;48.87
65800;BME280;52544;48.116;11.660;2023-07-09T09:44:44;96138.66;;;28.65;49.69
65800;BME280;52544;48.116;11.660;2023-07-09T09:47:10;96132.44;;;28.77;46.71
65800;BME280;52544;48.116;11.660;2023-07-09T09:49:41;96131.94;;;28.80;52.95
65800;BME280;52544;48.116;11.660;2023-07-09T09:52:14;96126.78;;;28.90;47.23
65800;BME280;52544;48.116;11.660;2023-07-09T09:54:45;96131.44;;;29.01;45.83
65800;BME280;52544;48.116;11.660;2023-07-09T09:57:20;96125.31;;;29.06;47.12
65800;BME280;52544;48.116;11.660;2023-07-09T09:59:46;96128.97;;;29.00;49.09
65800;BME280;52544;48.116;11.660;2023-07-09T10:02:20;96129.50;;;28.90;44.08
65800;BME280;52544;48.116;11.660;2023-07-09T10:04:47;96124.44;;;28.94;46.05
65800;BME280;52544;48.116;11.660;2023-07-09T10:07:37;96117.69;;;28.96;50.50
65800;BME280;52544;48.116;11.660;2023-07-09T10:10:13;96123.75;;;28.98;48.13
65800;BME280;52544;48.116;11.660;2023-07-09T10:12:41;96129.56;;;29.02;49.20
65800;BME280;52544;48.116;11.660;2023-07-09T10:16:05;96121.19;;;29.15;46.42
65800;BME280;52544;48.116;11.660;2023-07-09T10:19:25;96127.13;;;29.24;44.79
65800;BME280;52544;48.116;11.660;2023-07-09T10:24:31;96120.81;;;29.35;43.16
65800;BME280;52544;48.116;11.660;2023-07-09T10:27:35;96130.78;;;29.29;43.40
65800;BME280;52544;48.116;11.660;2023-07-09T10:33:10;96129.72;;;29.30;46.79
65800;BME280;52544;48.116;11.660;2023-07-09T10:35:48;96114.97;;;29.61;41.21
65800;BME280;52544;48.116;11.660;2023-07-09T10:38:23;96116.72;;;29.68;42.32
65800;BME280;52544;48.116;11.660;2023-07-09T10:40:54;96116.56;;;29.86;42.97
65800;BME280;52544;48.116;11.660;2023-07-09T10:43:29;96120.63;;;29.95;44.35
65800;BME280;52544;48.116;11.660;2023-07-09T10:46:03;96111.47;;;29.89;41.15
65800;BME280;52544;48.116;11.660;2023-07-09T10:48:56;96115.38;;;29.94;43.32
65800;BME280;52544;48.116;11.660;2023-07-09T10:51:30;96111.19;;;30.03;45.15
65800;BME280;52544;48.116;11.660;2023-07-09T10:56:38;96112.63;;;30.29;43.81
65800;BME280;52544;48.116;11.660;2023-07-09T10:59:22;96107.63;;;30.26;42.26
65800;BME280;52544;48.116;11.660;2023-07-09T11:01:57;96114.88;;;30.20;41.72
65800;BME280;52544;48.116;11.660;2023-07-09T11:04:37;96109.91;;;30.05;45.16
65800;BME280;52544;48.116;11.660;2023-07-09T11:07:10;96114.06;;;29.96;41.80
65800;BME280;52544;48.116;11.660;2023-07-09T11:09:42;96102.94;;;29.86;42.39
65800;BME280;52544;48.116;11.660;2023-07-09T11:12:30;96108.44;;;29.62;51.35
65800;BME280;52544;48.116;11.660;2023-07-09T11:15:04;96094.50;;;29.52;51.01
65800;BME280;52544;48.116;11.660;2023-07-09T11:17:34;96095.94;;;29.43;53.75
65800;BME280;52544;48.116;11.660;2023-07-09T11:20:16;96097.63;;;29.44;48.40
65800;BME280;52544;48.116;11.660;2023-07-09T11:22:42;96095.03;;;29.61;44.23
65800;BME280;52544;48.116;11.660;2023-07-09T11:25:10;96088.97;;;29.82;47.75
65800;BME280;52544;48.116;11.660;2023-07-09T11:27:52;96095.19;;;30.18;45.86
65800;BME280;52544;48.116;11.660;2023-07-09T11:30:26;96103.91;;;30.32;46.90
65800;BME280;52544;48.116;11.660;2023-07-09T11:33:03;96097.97;;;30.63;42.25
65800;BME280;52544;48.116;11.660;2023-07-09T11:35:46;96093.81;;;30.73;39.31
65800;BME280;52544;48.116;11.660;2023-07-09T11:38:53;96090.16;;;30.84;42.50
65800;BME280;52544;48.116;11.660;2023-07-09T11:41:40;96091.03;;;30.84;39.58
65800;BME280;52544;48.116;11.660;2023-07-09T11:47:07;96085.03;;;30.42;39.87
65800;BME280;52544;48.116;11.660;2023-07-09T11:49:57;96083.03;;;30.37;39.89
65800;BME280;52544;48.116;11.660;2023-07-09T11:52:37;96080.34;;;30.26;42.97
65800;BME280;52544;48.116;11.660;2023-07-09T11:57:48;96070.94;;;30.79;45.64
65800;BME280;52544;48.116;11.660;2023-07-09T12:00:50;96073.50;;;31.31;38.40
65800;BME280;52544;48.116;11.660;2023-07-09T12:03:35;96067.31;;;31.57;36.71
65800;BME280;52544;48.116;11.660;2023-07-09T12:06:16;96066.88;;;32.04;38.28
65800;BME280;52544;48.116;11.660;2023-07-09T12:08:45;96065.31;;;32.35;34.98
65800;BME280;52544;48.116;11.660;2023-07-09T12:13:47;96059.00;;;32.57;36.64
65800;BME280;52544;48.116;11.660;2023-07-09T12:16:25;96047.88;;;32.69;37.26
65800;BME280;52544;48.116;11.660;2023-07-09T12:18:51;96051.81;;;32.78;35.69
65800;BME280;52544;48.116;11.660;2023-07-09T12:21:18;96046.97;;;32.90;36.42
65800;BME280;52544;48.116;11.660;2023-07-09T12:23:44;96049.03;;;33.05;34.14
65800;BME280;52544;48.116;11.660;2023-07-09T12:26:18;96040.94;;;33.20;33.11
65800;BME280;52544;48.116;11.660;2023-07-09T12:28:51;96034.69;;;33.30;34.15
65800;BME280;52544;48.116;11.660;2023-07-09T12:31:18;96037.41;;;33.25;35.19
65800;BME280;52544;48.116;11.660;2023-07-09T12:33:48;96046.41;;;33.52;32.38
65800;BME280;52544;48.116;11.660;2023-07-09T12:36:16;96040.13;;;33.57;33.77
65800;BME280;52544;48.116;11.660;2023-07-09T12:38:45;96033.81;;;33.56;32.30
65800;BME280;52544;48.116;11.660;2023-07-09T12:41:19;96029.47;;;33.61;32.35
65800;BME280;52544;48.116;11.660;2023-07-09T12:43:48;96030.59;;;33.65;34.21
65800;BME280;52544;48.116;11.660;2023-07-09T12:46:15;96022.38;;;33.75;33.93
65800;BME280;52544;48.116;11.660;2023-07-09T12:48:41;96023.72;;;33.67;33.59
65800;BME280;52544;48.116;11.660;2023-07-09T12:51:08;96023.47;;;33.74;32.51
65800;BME280;52544;48.116;11.660;2023-07-09T12:53:36;96021.22;;;33.61;33.02
65800;BME280;52544;48.116;11.660;2023-07-09T12:56:01;96016.75;;;33.44;34.71
65800;BME280;52544;48.116;11.660;2023-07-09T12:58:32;96016.63;;;33.34;34.40
65800;BME280;52544;48.116;11.660;2023-07-09T13:01:05;96010.84;;;33.73;31.51
65800;BME280;52544;48.116;11.660;2023-07-09T13:03:32;96008.75;;;33.95;30.83
65800;BME280;52544;48.116;11.660;2023-07-09T13:06:01;96015.00;;;33.86;33.25
65800;BME280;52544;48.116;11.660;2023-07-09T13:08:30;96009.28;;;33.92;32.37
65800;BME280;52544;48.116;11.660;2023-07-09T13:10:57;96005.13;;;33.79;32.51
65800;BME280;52544;48.116;11.660;2023-07-09T13:13:24;95998.59;;;33.43;31.46
65800;BME280;52544;48.116;11.660;2023-07-09T13:15:57;95998.47;;;33.23;34.15
65800;BME280;52544;48.116;11.660;2023-07-09T13:18:26;96002.91;;;33.34;31.09
65800;BME280;52544;48.116;11.660;2023-07-09T13:20:53;96002.88;;;33.24;33.75
65800;BME280;52544;48.116;11.660;2023-07-09T13:23:23;96003.94;;;33.18;32.30